Polaris — JD2797 — position and weather

sailwx.info

Track history (hours):
 
Tides and Currents Weather Stations Pressure Air Temp Water Temp Dewpoint Dewpoint Depression Visibility Wind Speed Wind Dir Waves Ship Positions

Polaris

Last reported at 2015-Jul-03 11:34 UTC. Time now 2015-Jul-04 07:01 UTC.
Position N 35°19' E 139°40'.

Length 30 m; draft 2.6 m.

Type: Pilot. MMSI: 431000764.

Date/timePositionNaut miles runAvg speedWind from/ knotsBaromVisibWave heightAir tempDewpointWater temp
2015-Jul-03 11:34N 35°19' E 139°40'6 6.4
2015-Jul-03 10:33N 35°15' E 139°46'1010.6
2015-Jul-03 09:33N 35°25' E 139°44'3 3.4
2015-Jul-03 08:33N 35°22' E 139°43'4 0.4
2015-Jul-02 21:33N 35°19' E 139°40'4 3.9
2015-Jul-02 20:33N 35°20' E 139°44'10 9.8
2015-Jul-02 19:33N 35°11' E 139°47'1110.3
2015-Jul-02 18:30N 35°19' E 139°38'0 0.0
2015-Jul-02 17:33N 35°19' E 139°38'4 0.1
2015-Jun-30 21:33N 35°21' E 139°42'4 4.4
2015-Jun-30 20:33N 35°17' E 139°45'7 6.7
2015-Jun-30 19:33N 35°11' E 139°47'1010.2
2015-Jun-30 18:33N 35°19' E 139°38'0 0.0
2015-Jun-29 23:11N 35°19' E 139°38'711.3
2015-Jun-29 22:33N 35°25' E 139°42'2 2.0
2015-Jun-29 21:33N 35°26' E 139°44'1211.5
2015-Jun-29 20:33N 35°15' E 139°47'2 2.1
2015-Jun-29 19:34N 35°13' E 139°46'1414.1
2015-Jun-29 18:34N 35°27' E 139°42'4 0.1
2015-Jun-28 06:34N 35°23' E 139°41'10 9.4
2015-Jun-28 05:33N 35°14' E 139°46'1111.5
2015-Jun-28 04:33N 35°25' E 139°42'1 1.4
2015-Jun-28 03:33N 35°26' E 139°42'1 0.2
2015-Jun-27 21:33N 35°25' E 139°42'1212.3
2015-Jun-27 20:34N 35°14' E 139°47'1 1.0
2015-Jun-27 19:33N 35°13' E 139°46'1312.7
2015-Jun-27 18:34N 35°26' E 139°42'2 2.1
2015-Jun-27 17:33N 35°27' E 139°40'0 0.0
2015-Jun-27 08:20N 35°27' E 139°40'810.6
2015-Jun-27 07:33N 35°19' E 139°43'2 1.7
2015-Jun-27 06:33N 35°18' E 139°44'1111.1
2015-Jun-27 05:33N 35°28' E 139°49'1212.4
2015-Jun-27 04:33N 35°34' E 140°02'4 3.6
2015-Jun-27 03:33N 35°35' E 140°06'9 8.9
2015-Jun-27 02:33N 35°31' E 139°56'1312.5
2015-Jun-27 01:34N 35°26' E 139°42'2 2.2
2015-Jun-27 00:33N 35°27' E 139°40'  
2015-Jun-23 23:34N 35°27' E 139°40'1211.8
2015-Jun-23 22:33N 35°16' E 139°45'6 6.5
2015-Jun-23 21:33N 35°22' E 139°42'4 4.0
2015-Jun-23 20:33N 35°26' E 139°43'3 3.0
2015-Jun-23 19:33N 35°27' E 139°40'  
Track history (hours):
 
Tides and Currents Weather Stations Pressure Air Temp Water Temp Dewpoint Dewpoint Depression Visibility Wind Speed Wind Dir Waves Ship Positions

Polaris

Last reported at 2015-Jul-03 11:34 UTC. Time now 2015-Jul-04 07:01 UTC.
Position N 35°19' E 139°40'.

Length 30 m; draft 2.6 m.

Type: Pilot. MMSI: 431000764.

Date/timePositionNaut miles runAvg speedWind from/ knotsBaromVisibWave heightAir tempDewpointWater temp
2015-Jul-03 11:34N 35°19' E 139°40'6 6.4
2015-Jul-03 10:33N 35°15' E 139°46'1010.6
2015-Jul-03 09:33N 35°25' E 139°44'3 3.4
2015-Jul-03 08:33N 35°22' E 139°43'4 0.4
2015-Jul-02 21:33N 35°19' E 139°40'4 3.9
2015-Jul-02 20:33N 35°20' E 139°44'10 9.8
2015-Jul-02 19:33N 35°11' E 139°47'1110.3
2015-Jul-02 18:30N 35°19' E 139°38'0 0.0
2015-Jul-02 17:33N 35°19' E 139°38'4 0.1
2015-Jun-30 21:33N 35°21' E 139°42'4 4.4
2015-Jun-30 20:33N 35°17' E 139°45'7 6.7
2015-Jun-30 19:33N 35°11' E 139°47'1010.2
2015-Jun-30 18:33N 35°19' E 139°38'0 0.0
2015-Jun-29 23:11N 35°19' E 139°38'711.3
2015-Jun-29 22:33N 35°25' E 139°42'2 2.0
2015-Jun-29 21:33N 35°26' E 139°44'1211.5
2015-Jun-29 20:33N 35°15' E 139°47'2 2.1
2015-Jun-29 19:34N 35°13' E 139°46'1414.1
2015-Jun-29 18:34N 35°27' E 139°42'4 0.1
2015-Jun-28 06:34N 35°23' E 139°41'10 9.4
2015-Jun-28 05:33N 35°14' E 139°46'1111.5
2015-Jun-28 04:33N 35°25' E 139°42'1 1.4
2015-Jun-28 03:33N 35°26' E 139°42'1 0.2
2015-Jun-27 21:33N 35°25' E 139°42'1212.3
2015-Jun-27 20:34N 35°14' E 139°47'1 1.0
2015-Jun-27 19:33N 35°13' E 139°46'1312.7
2015-Jun-27 18:34N 35°26' E 139°42'2 2.1
2015-Jun-27 17:33N 35°27' E 139°40'0 0.0
2015-Jun-27 08:20N 35°27' E 139°40'810.6
2015-Jun-27 07:33N 35°19' E 139°43'2 1.7
2015-Jun-27 06:33N 35°18' E 139°44'1111.1
2015-Jun-27 05:33N 35°28' E 139°49'1212.4
2015-Jun-27 04:33N 35°34' E 140°02'4 3.6
2015-Jun-27 03:33N 35°35' E 140°06'9 8.9
2015-Jun-27 02:33N 35°31' E 139°56'1312.5
2015-Jun-27 01:34N 35°26' E 139°42'2 2.2
2015-Jun-27 00:33N 35°27' E 139°40'  
2015-Jun-23 23:34N 35°27' E 139°40'1211.8
2015-Jun-23 22:33N 35°16' E 139°45'6 6.5
2015-Jun-23 21:33N 35°22' E 139°42'4 4.0
2015-Jun-23 20:33N 35°26' E 139°43'3 3.0
2015-Jun-23 19:33N 35°27' E 139°40'  

Dump ship's entire track history